SHT21V EGNT-EGLL
Flight info
| Callsign | SHT21V |
|---|---|
| Flight time | 0h 52m |
| Altitude | 28000 |
| Route | GIRLI P18 GASKO P16 RIBEL UP16 CROFT DCT NUGRA |
| Aircraft | A20N/M-SDE2E3FGHIRWXY/LB1 |
Departure
| Time | 2026-05-06 18:20 |
|---|---|
| Airport | Newcastle International Airport (EGNT) |
Arrival
| Time | 2026-05-06 19:13 |
|---|---|
| Airport | London Heathrow Airport (EGLL) |
| Time | Latitude | Longitude | Altitude | Speed | Heading |
|---|---|---|---|---|---|
| 2026-05-06 18:03 | 55.03728 | -1.70672 | 263 ft | 0 kts | 185° |
| 2026-05-06 18:14 | 55.03741 | -1.70670 | 263 ft | 4 kts | 183° |
| 2026-05-06 18:14 | 55.03768 | -1.70669 | 263 ft | 4 kts | 175° |
| 2026-05-06 18:14 | 55.03793 | -1.70678 | 263 ft | 4 kts | 149° |
| 2026-05-06 18:14 | 55.03806 | -1.70703 | 263 ft | 1 kts | 94° |
| 2026-05-06 18:15 | 55.03806 | -1.70704 | 263 ft | 1 kts | 94° |
| 2026-05-06 18:17 | 55.03806 | -1.70689 | 263 ft | 3 kts | 94° |
| 2026-05-06 18:17 | 55.03804 | -1.70642 | 263 ft | 5 kts | 95° |
| 2026-05-06 18:17 | 55.03800 | -1.70571 | 262 ft | 7 kts | 94° |
| 2026-05-06 18:17 | 55.03794 | -1.70479 | 261 ft | 8 kts | 105° |
| 2026-05-06 18:18 | 55.03754 | -1.70430 | 261 ft | 13 kts | 175° |
| 2026-05-06 18:18 | 55.03671 | -1.70441 | 262 ft | 12 kts | 181° |
| 2026-05-06 18:18 | 55.03604 | -1.70491 | 263 ft | 8 kts | 240° |
| 2026-05-06 18:18 | 55.03592 | -1.70578 | 263 ft | 7 kts | 258° |
| 2026-05-06 18:19 | 55.03569 | -1.70633 | 264 ft | 8 kts | 214° |
| 2026-05-06 18:19 | 55.03458 | -1.70654 | 265 ft | 19 kts | 183° |
| 2026-05-06 18:19 | 55.03370 | -1.70597 | 266 ft | 9 kts | 103° |
| 2026-05-06 18:19 | 55.03378 | -1.70541 | 265 ft | 0 kts | 64° |
| 2026-05-06 18:20 | 55.03381 | -1.70528 | 265 ft | 11 kts | 65° |
| 2026-05-06 18:20 | 55.03501 | -1.70070 | 257 ft | 87 kts | 66° |
| 2026-05-06 18:20 | 55.03896 | -1.68583 | 393 ft | 169 kts | 69° |
| 2026-05-06 18:20 | 55.04402 | -1.66575 | 1191 ft | 187 kts | 63° |
| 2026-05-06 18:21 | 55.04972 | -1.64517 | 2196 ft | 198 kts | 66° |
| 2026-05-06 18:21 | 55.05396 | -1.62979 | 2470 ft | 226 kts | 66° |
| 2026-05-06 18:21 | 55.06097 | -1.60326 | 3224 ft | 249 kts | 66° |
| 2026-05-06 18:21 | 55.06825 | -1.57541 | 4346 ft | 256 kts | 65° |
| 2026-05-06 18:22 | 55.07041 | -1.53451 | 5821 ft | 268 kts | 107° |
| 2026-05-06 18:22 | 55.06434 | -1.51501 | 6585 ft | 272 kts | 130° |
| 2026-05-06 18:22 | 55.04885 | -1.49660 | 7416 ft | 274 kts | 163° |
| 2026-05-06 18:22 | 55.03027 | -1.49513 | 7899 ft | 274 kts | 193° |
| 2026-05-06 18:23 | 55.01193 | -1.50424 | 8310 ft | 276 kts | 202° |
| 2026-05-06 18:23 | 54.99412 | -1.51786 | 9356 ft | 280 kts | 206° |
| 2026-05-06 18:23 | 54.97668 | -1.53334 | 10586 ft | 285 kts | 209° |
| 2026-05-06 18:23 | 54.95850 | -1.55067 | 11220 ft | 312 kts | 210° |
| 2026-05-06 18:24 | 54.93903 | -1.57008 | 11964 ft | 331 kts | 211° |
| 2026-05-06 18:24 | 54.91885 | -1.59056 | 13055 ft | 339 kts | 212° |
| 2026-05-06 18:24 | 54.89839 | -1.61148 | 14192 ft | 345 kts | 212° |
| 2026-05-06 18:24 | 54.87759 | -1.63281 | 15246 ft | 349 kts | 213° |
| 2026-05-06 18:25 | 54.85662 | -1.65434 | 16330 ft | 352 kts | 213° |
| 2026-05-06 18:25 | 54.83539 | -1.67614 | 17361 ft | 356 kts | 213° |
| 2026-05-06 18:25 | 54.81388 | -1.69822 | 18362 ft | 361 kts | 213° |
| 2026-05-06 18:25 | 54.79208 | -1.72052 | 19199 ft | 367 kts | 213° |
| 2026-05-06 18:26 | 54.76990 | -1.74324 | 20015 ft | 373 kts | 213° |
| 2026-05-06 18:26 | 54.74741 | -1.76626 | 20844 ft | 378 kts | 213° |
| 2026-05-06 18:26 | 54.72454 | -1.78966 | 21624 ft | 384 kts | 214° |
| 2026-05-06 18:26 | 54.70129 | -1.81302 | 22387 ft | 392 kts | 206° |
| 2026-05-06 18:27 | 54.67485 | -1.82665 | 23163 ft | 401 kts | 194° |
| 2026-05-06 18:27 | 54.64706 | -1.83448 | 23857 ft | 408 kts | 190° |
| 2026-05-06 18:27 | 54.61867 | -1.84023 | 24445 ft | 413 kts | 189° |
| 2026-05-06 18:27 | 54.58998 | -1.84600 | 25026 ft | 418 kts | 190° |
| 2026-05-06 18:28 | 54.56096 | -1.85269 | 25597 ft | 422 kts | 191° |
| 2026-05-06 18:28 | 54.53182 | -1.86038 | 26160 ft | 426 kts | 192° |
| 2026-05-06 18:28 | 54.50241 | -1.86894 | 26716 ft | 430 kts | 193° |
| 2026-05-06 18:28 | 54.47278 | -1.87805 | 27225 ft | 435 kts | 193° |
| 2026-05-06 18:29 | 54.44325 | -1.88737 | 27721 ft | 440 kts | 193° |
| 2026-05-06 18:29 | 54.41301 | -1.89698 | 28017 ft | 442 kts | 193° |
| 2026-05-06 18:29 | 54.35245 | -1.91612 | 28046 ft | 443 kts | 193° |
| 2026-05-06 18:30 | 54.29171 | -1.93511 | 28044 ft | 443 kts | 192° |
| 2026-05-06 18:30 | 54.23110 | -1.95467 | 28038 ft | 442 kts | 199° |
| 2026-05-06 18:31 | 54.20359 | -1.97670 | 28039 ft | 435 kts | 216° |
| 2026-05-06 18:31 | 54.18022 | -2.00909 | 28037 ft | 432 kts | 226° |
| 2026-05-06 18:31 | 54.13890 | -2.08333 | 28037 ft | 431 kts | 230° |
| 2026-05-06 18:32 | 54.09759 | -2.15755 | 28031 ft | 432 kts | 228° |
| 2026-05-06 18:32 | 54.05472 | -2.22874 | 28032 ft | 433 kts | 226° |
| 2026-05-06 18:33 | 54.00900 | -2.29561 | 28027 ft | 437 kts | 213° |
| 2026-05-06 18:33 | 53.95321 | -2.33794 | 28020 ft | 441 kts | 201° |
| 2026-05-06 18:34 | 53.89485 | -2.37140 | 28021 ft | 442 kts | 200° |
| 2026-05-06 18:34 | 53.83673 | -2.40567 | 28019 ft | 442 kts | 202° |
| 2026-05-06 18:35 | 53.77909 | -2.44170 | 28019 ft | 442 kts | 202° |
| 2026-05-06 18:35 | 53.72198 | -2.47818 | 28020 ft | 441 kts | 203° |
| 2026-05-06 18:36 | 53.66456 | -2.51487 | 28007 ft | 441 kts | 202° |
| 2026-05-06 18:36 | 53.60524 | -2.53961 | 28013 ft | 445 kts | 180° |
| 2026-05-06 18:37 | 53.57468 | -2.53097 | 28015 ft | 447 kts | 165° |
| 2026-05-06 18:37 | 53.54505 | -2.51522 | 28017 ft | 448 kts | 163° |
| 2026-05-06 18:37 | 53.48526 | -2.48549 | 28011 ft | 448 kts | 166° |
| 2026-05-06 18:38 | 53.42485 | -2.45948 | 28016 ft | 448 kts | 167° |
| 2026-05-06 18:38 | 53.36425 | -2.43493 | 28012 ft | 448 kts | 167° |
| 2026-05-06 18:39 | 53.33420 | -2.42297 | 27700 ft | 439 kts | 167° |
| 2026-05-06 18:39 | 53.30483 | -2.41134 | 27446 ft | 426 kts | 168° |
| 2026-05-06 18:39 | 53.27639 | -2.40012 | 27231 ft | 413 kts | 168° |
| 2026-05-06 18:40 | 53.22207 | -2.37879 | 26847 ft | 389 kts | 168° |
| 2026-05-06 18:40 | 53.19646 | -2.36875 | 26686 ft | 378 kts | 168° |
| 2026-05-06 18:40 | 53.17125 | -2.35889 | 26529 ft | 366 kts | 168° |
| 2026-05-06 18:40 | 53.14675 | -2.34933 | 26370 ft | 356 kts | 168° |
| 2026-05-06 18:41 | 53.12293 | -2.34004 | 26234 ft | 346 kts | 168° |
| 2026-05-06 18:41 | 53.09984 | -2.33104 | 26102 ft | 336 kts | 168° |
| 2026-05-06 18:41 | 53.07742 | -2.32232 | 25982 ft | 326 kts | 168° |
| 2026-05-06 18:41 | 53.05563 | -2.31385 | 25855 ft | 317 kts | 169° |
| 2026-05-06 18:42 | 53.03446 | -2.30582 | 25738 ft | 308 kts | 168° |
| 2026-05-06 18:42 | 53.01513 | -2.29191 | 25588 ft | 302 kts | 148° |
| 2026-05-06 18:42 | 52.99765 | -2.27303 | 25392 ft | 297 kts | 148° |
| 2026-05-06 18:42 | 52.98054 | -2.25412 | 25137 ft | 294 kts | 148° |
| 2026-05-06 18:43 | 52.96360 | -2.23556 | 24883 ft | 291 kts | 148° |
| 2026-05-06 18:43 | 52.94688 | -2.21754 | 24612 ft | 289 kts | 149° |
| 2026-05-06 18:43 | 52.93002 | -2.19961 | 24339 ft | 287 kts | 149° |
| 2026-05-06 18:43 | 52.91319 | -2.18183 | 24072 ft | 286 kts | 149° |
| 2026-05-06 18:44 | 52.89645 | -2.16424 | 23802 ft | 284 kts | 150° |
| 2026-05-06 18:44 | 52.87980 | -2.14679 | 23530 ft | 282 kts | 150° |
| 2026-05-06 18:44 | 52.86323 | -2.12948 | 23213 ft | 281 kts | 150° |
| 2026-05-06 18:44 | 52.84675 | -2.11228 | 22901 ft | 279 kts | 150° |
| 2026-05-06 18:45 | 52.83036 | -2.09519 | 22605 ft | 277 kts | 150° |
| 2026-05-06 18:45 | 52.81411 | -2.07827 | 22307 ft | 275 kts | 150° |
| 2026-05-06 18:45 | 52.79795 | -2.06147 | 22013 ft | 274 kts | 150° |
| 2026-05-06 18:45 | 52.78187 | -2.04475 | 21718 ft | 272 kts | 150° |
| 2026-05-06 18:46 | 52.76590 | -2.02817 | 21443 ft | 270 kts | 150° |
| 2026-05-06 18:46 | 52.75000 | -2.01168 | 21115 ft | 270 kts | 150° |
| 2026-05-06 18:46 | 52.73400 | -1.99512 | 20517 ft | 283 kts | 149° |
| 2026-05-06 18:46 | 52.71609 | -1.97664 | 20105 ft | 324 kts | 149° |
| 2026-05-06 18:47 | 52.69575 | -1.95566 | 19996 ft | 363 kts | 149° |
| 2026-05-06 18:47 | 52.67372 | -1.93292 | 20008 ft | 380 kts | 149° |
| 2026-05-06 18:47 | 52.65125 | -1.90969 | 20015 ft | 382 kts | 149° |
| 2026-05-06 18:47 | 52.62868 | -1.88640 | 20017 ft | 383 kts | 149° |
| 2026-05-06 18:48 | 52.60613 | -1.86316 | 20039 ft | 383 kts | 149° |
| 2026-05-06 18:48 | 52.58349 | -1.83986 | 20042 ft | 383 kts | 149° |
| 2026-05-06 18:48 | 52.56089 | -1.81664 | 20045 ft | 383 kts | 149° |
| 2026-05-06 18:48 | 52.53829 | -1.79346 | 20047 ft | 383 kts | 149° |
| 2026-05-06 18:49 | 52.51569 | -1.77031 | 20047 ft | 383 kts | 149° |
| 2026-05-06 18:49 | 52.49306 | -1.74715 | 20046 ft | 383 kts | 149° |
| 2026-05-06 18:49 | 52.47049 | -1.72410 | 20048 ft | 382 kts | 149° |
| 2026-05-06 18:49 | 52.44793 | -1.70106 | 20048 ft | 382 kts | 149° |
| 2026-05-06 18:50 | 52.42532 | -1.67802 | 20047 ft | 382 kts | 149° |
| 2026-05-06 18:50 | 52.40275 | -1.65504 | 20047 ft | 382 kts | 149° |
| 2026-05-06 18:50 | 52.38010 | -1.63201 | 20047 ft | 382 kts | 149° |
| 2026-05-06 18:50 | 52.35748 | -1.60904 | 20043 ft | 382 kts | 149° |
| 2026-05-06 18:51 | 52.33486 | -1.58610 | 20040 ft | 382 kts | 149° |
| 2026-05-06 18:51 | 52.31220 | -1.56314 | 20020 ft | 382 kts | 149° |
| 2026-05-06 18:51 | 52.28987 | -1.54054 | 20019 ft | 382 kts | 149° |
| 2026-05-06 18:51 | 52.26723 | -1.51766 | 20008 ft | 382 kts | 149° |
| 2026-05-06 18:52 | 52.24469 | -1.49490 | 19580 ft | 379 kts | 149° |
| 2026-05-06 18:52 | 52.22230 | -1.47247 | 19031 ft | 376 kts | 149° |
| 2026-05-06 18:52 | 52.20151 | -1.44680 | 18436 ft | 375 kts | 140° |
| 2026-05-06 18:52 | 52.18171 | -1.41912 | 17803 ft | 372 kts | 140° |
| 2026-05-06 18:53 | 52.16230 | -1.39153 | 17168 ft | 369 kts | 139° |
| 2026-05-06 18:53 | 52.14298 | -1.36418 | 16560 ft | 366 kts | 140° |
| 2026-05-06 18:53 | 52.12374 | -1.33712 | 15952 ft | 363 kts | 140° |
| 2026-05-06 18:53 | 52.10467 | -1.31042 | 15385 ft | 360 kts | 140° |
| 2026-05-06 18:54 | 52.08595 | -1.28431 | 15080 ft | 358 kts | 140° |
| 2026-05-06 18:54 | 52.06703 | -1.25798 | 15017 ft | 359 kts | 140° |
| 2026-05-06 18:54 | 52.04805 | -1.23162 | 15018 ft | 358 kts | 140° |
| 2026-05-06 18:54 | 52.02909 | -1.20532 | 15015 ft | 358 kts | 140° |
| 2026-05-06 18:55 | 52.01012 | -1.17903 | 15017 ft | 358 kts | 140° |
| 2026-05-06 18:55 | 51.99117 | -1.15281 | 15017 ft | 358 kts | 140° |
| 2026-05-06 18:55 | 51.97222 | -1.12663 | 15017 ft | 358 kts | 140° |
| 2026-05-06 18:55 | 51.95329 | -1.10050 | 15018 ft | 358 kts | 140° |
| 2026-05-06 18:56 | 51.93433 | -1.07437 | 15018 ft | 358 kts | 140° |
| 2026-05-06 18:56 | 51.91535 | -1.04825 | 15017 ft | 358 kts | 140° |
| 2026-05-06 18:56 | 51.89638 | -1.02216 | 15017 ft | 358 kts | 140° |
| 2026-05-06 18:56 | 51.87745 | -0.99606 | 15016 ft | 358 kts | 139° |
| 2026-05-06 18:57 | 51.85850 | -0.96999 | 15017 ft | 358 kts | 141° |
| 2026-05-06 18:57 | 51.84084 | -0.94184 | 15015 ft | 359 kts | 124° |
| 2026-05-06 18:57 | 51.82973 | -0.90587 | 14926 ft | 356 kts | 112° |
| 2026-05-06 18:57 | 51.82053 | -0.86917 | 14599 ft | 346 kts | 111° |
| 2026-05-06 18:58 | 51.81156 | -0.83472 | 14362 ft | 326 kts | 113° |
| 2026-05-06 18:58 | 51.80255 | -0.80206 | 14031 ft | 311 kts | 114° |
| 2026-05-06 18:58 | 51.79354 | -0.77076 | 13481 ft | 305 kts | 114° |
| 2026-05-06 18:58 | 51.78439 | -0.73986 | 12800 ft | 304 kts | 115° |
| 2026-05-06 18:59 | 51.77517 | -0.70927 | 12126 ft | 302 kts | 115° |
| 2026-05-06 18:59 | 51.76590 | -0.67884 | 11463 ft | 301 kts | 115° |
| 2026-05-06 18:59 | 51.75668 | -0.64876 | 10811 ft | 298 kts | 115° |
| 2026-05-06 18:59 | 51.74756 | -0.61898 | 10177 ft | 295 kts | 116° |
| 2026-05-06 19:00 | 51.73600 | -0.59192 | 9499 ft | 294 kts | 137° |
| 2026-05-06 19:00 | 51.71866 | -0.57531 | 8845 ft | 290 kts | 163° |
| 2026-05-06 19:00 | 51.69892 | -0.57062 | 8249 ft | 282 kts | 178° |
| 2026-05-06 19:00 | 51.68617 | -0.57018 | 8056 ft | 271 kts | 180° |
| 2026-05-06 19:01 | 51.66338 | -0.57889 | 7996 ft | 249 kts | 214° |
| 2026-05-06 19:01 | 51.65158 | -0.59878 | 8002 ft | 246 kts | 239° |
| 2026-05-06 19:01 | 51.64335 | -0.62288 | 8000 ft | 246 kts | 245° |
| 2026-05-06 19:01 | 51.63571 | -0.64752 | 7994 ft | 246 kts | 246° |
| 2026-05-06 19:02 | 51.62811 | -0.67219 | 7995 ft | 246 kts | 246° |
| 2026-05-06 19:02 | 51.62045 | -0.69680 | 8000 ft | 245 kts | 245° |
| 2026-05-06 19:02 | 51.61290 | -0.72147 | 7999 ft | 246 kts | 246° |
| 2026-05-06 19:02 | 51.60534 | -0.74607 | 8000 ft | 246 kts | 245° |
| 2026-05-06 19:03 | 51.59792 | -0.77080 | 7996 ft | 245 kts | 246° |
| 2026-05-06 19:03 | 51.59043 | -0.79541 | 7780 ft | 244 kts | 246° |
| 2026-05-06 19:03 | 51.58294 | -0.81993 | 7431 ft | 244 kts | 246° |
| 2026-05-06 19:03 | 51.57538 | -0.84435 | 7116 ft | 243 kts | 246° |
| 2026-05-06 19:04 | 51.56802 | -0.86832 | 6832 ft | 241 kts | 245° |
| 2026-05-06 19:04 | 51.56063 | -0.89244 | 6521 ft | 240 kts | 246° |
| 2026-05-06 19:04 | 51.55329 | -0.91644 | 6191 ft | 239 kts | 246° |
| 2026-05-06 19:04 | 51.54599 | -0.94040 | 5861 ft | 237 kts | 245° |
| 2026-05-06 19:05 | 51.53874 | -0.96404 | 5591 ft | 233 kts | 241° |
| 2026-05-06 19:05 | 51.53031 | -0.98631 | 5121 ft | 239 kts | 228° |
| 2026-05-06 19:05 | 51.51611 | -1.00016 | 4618 ft | 243 kts | 195° |
| 2026-05-06 19:05 | 51.49974 | -1.00336 | 4416 ft | 230 kts | 182° |
| 2026-05-06 19:06 | 51.48435 | -1.00136 | 4260 ft | 217 kts | 159° |
| 2026-05-06 19:06 | 51.47341 | -0.98670 | 4041 ft | 201 kts | 114° |
| 2026-05-06 19:06 | 51.47208 | -0.96585 | 3970 ft | 186 kts | 77° |
| 2026-05-06 19:06 | 51.47384 | -0.94521 | 3993 ft | 188 kts | 82° |
| 2026-05-06 19:07 | 51.47436 | -0.93125 | 3980 ft | 189 kts | 85° |
| 2026-05-06 19:07 | 51.47461 | -0.91012 | 3984 ft | 190 kts | 87° |
| 2026-05-06 19:07 | 51.47475 | -0.88892 | 3986 ft | 190 kts | 86° |
| 2026-05-06 19:07 | 51.47489 | -0.86097 | 3987 ft | 190 kts | 87° |
| 2026-05-06 19:08 | 51.47496 | -0.84662 | 3977 ft | 190 kts | 87° |
| 2026-05-06 19:08 | 51.47508 | -0.82541 | 3981 ft | 190 kts | 87° |
| 2026-05-06 19:08 | 51.47521 | -0.80419 | 3982 ft | 190 kts | 86° |
| 2026-05-06 19:08 | 51.47535 | -0.78302 | 3880 ft | 189 kts | 86° |
| 2026-05-06 19:09 | 51.47551 | -0.76202 | 3634 ft | 188 kts | 86° |
| 2026-05-06 19:09 | 51.47565 | -0.74137 | 3343 ft | 187 kts | 86° |
| 2026-05-06 19:09 | 51.47578 | -0.72048 | 3051 ft | 186 kts | 86° |
| 2026-05-06 19:09 | 51.47592 | -0.69972 | 2796 ft | 185 kts | 86° |
| 2026-05-06 19:10 | 51.47605 | -0.67918 | 2546 ft | 182 kts | 86° |
| 2026-05-06 19:10 | 51.47617 | -0.65954 | 2294 ft | 171 kts | 86° |
| 2026-05-06 19:10 | 51.47629 | -0.64093 | 2071 ft | 164 kts | 86° |
| 2026-05-06 19:10 | 51.47641 | -0.62278 | 1861 ft | 161 kts | 86° |
| 2026-05-06 19:11 | 51.47654 | -0.60480 | 1633 ft | 162 kts | 86° |
| 2026-05-06 19:11 | 51.47665 | -0.58673 | 1401 ft | 160 kts | 86° |
| 2026-05-06 19:11 | 51.47675 | -0.56963 | 1206 ft | 146 kts | 86° |
| 2026-05-06 19:11 | 51.47687 | -0.55353 | 994 ft | 144 kts | 86° |
| 2026-05-06 19:12 | 51.47697 | -0.53766 | 784 ft | 144 kts | 86° |
| 2026-05-06 19:12 | 51.47708 | -0.52166 | 584 ft | 143 kts | 87° |
| 2026-05-06 19:12 | 51.47718 | -0.50577 | 389 ft | 143 kts | 86° |
| 2026-05-06 19:12 | 51.47737 | -0.49012 | 201 ft | 136 kts | 84° |
| 2026-05-06 19:13 | 51.47759 | -0.47609 | 96 ft | 115 kts | 96° |
| 2026-05-06 19:13 | 51.47756 | -0.46548 | 96 ft | 70 kts | 90° |
| 2026-05-06 19:13 | 51.47758 | -0.46044 | 91 ft | 29 kts | 89° |
| 2026-05-06 19:13 | 51.47760 | -0.45715 | 90 ft | 30 kts | 91° |
| 2026-05-06 19:14 | 51.47714 | -0.45472 | 88 ft | 18 kts | 163° |
| 2026-05-06 19:14 | 51.47614 | -0.45477 | 93 ft | 13 kts | 201° |
| 2026-05-06 19:14 | 51.47597 | -0.45608 | 89 ft | 21 kts | 267° |
| 2026-05-06 19:14 | 51.47598 | -0.45851 | 89 ft | 23 kts | 270° |
| 2026-05-06 19:15 | 51.47596 | -0.46118 | 90 ft | 25 kts | 270° |
| 2026-05-06 19:15 | 51.47595 | -0.46410 | 93 ft | 27 kts | 270° |
| 2026-05-06 19:15 | 51.47593 | -0.46726 | 91 ft | 29 kts | 270° |
| 2026-05-06 19:15 | 51.47583 | -0.47059 | 93 ft | 30 kts | 270° |
| 2026-05-06 19:16 | 51.47583 | -0.47310 | 91 ft | 23 kts | 270° |
| 2026-05-06 19:16 | 51.47583 | -0.47580 | 91 ft | 26 kts | 270° |
| 2026-05-06 19:16 | 51.47581 | -0.47877 | 91 ft | 28 kts | 270° |
| 2026-05-06 19:16 | 51.47580 | -0.48199 | 93 ft | 30 kts | 268° |
| 2026-05-06 19:17 | 51.47572 | -0.48440 | 90 ft | 18 kts | 242° |
| 2026-05-06 19:17 | 51.47487 | -0.48540 | 92 ft | 12 kts | 270° |
| 2026-05-06 19:17 | 51.47488 | -0.48700 | 90 ft | 17 kts | 270° |
| 2026-05-06 19:17 | 51.47478 | -0.48822 | 93 ft | 3 kts | 211° |
| 2026-05-06 19:18 | 51.47463 | -0.48829 | 92 ft | 1 kts | 184° |
| 2026-05-06 19:18 | 51.47449 | -0.48830 | 91 ft | 3 kts | 184° |
| 2026-05-06 19:18 | 51.47439 | -0.48835 | 90 ft | 0 kts | 222° |